createdAt,value
2019-01-02T00:00:51.979Z,4.73
2019-01-02T00:01:51.969Z,4.74
2019-01-02T00:02:51.959Z,4.77
2019-01-02T00:03:51.953Z,4.84
2019-01-02T00:04:51.940Z,4.82
2019-01-02T00:05:51.933Z,4.67
2019-01-02T00:06:51.922Z,4.89
2019-01-02T00:07:51.912Z,4.84
2019-01-02T00:08:51.909Z,4.87
2019-01-02T00:09:51.895Z,4.87
2019-01-02T00:10:51.886Z,4.82
2019-01-02T00:11:51.884Z,4.77
2019-01-02T00:12:51.874Z,4.67
2019-01-02T00:13:51.863Z,4.66
2019-01-02T00:14:51.874Z,4.59
2019-01-02T00:15:51.844Z,4.63
2019-01-02T00:16:51.837Z,4.60
2019-01-02T00:17:51.832Z,4.53
2019-01-02T00:18:51.826Z,4.56
2019-01-02T00:19:51.817Z,4.52
2019-01-02T00:20:51.809Z,4.56
2019-01-02T00:21:51.798Z,4.56
2019-01-02T00:22:51.784Z,4.59
2019-01-02T00:23:51.781Z,4.59
2019-01-02T00:24:51.773Z,4.82
2019-01-02T00:25:51.759Z,4.86
2019-01-02T00:26:51.749Z,4.87
2019-01-02T00:27:51.739Z,4.82
2019-01-02T00:28:51.739Z,4.86
2019-01-02T00:29:51.722Z,4.87
2019-01-02T00:30:51.712Z,4.90
2019-01-02T00:31:51.711Z,4.73
2019-01-02T00:32:51.696Z,4.80
2019-01-02T00:33:51.687Z,4.70
2019-01-02T00:34:51.683Z,4.75
2019-01-02T00:35:51.676Z,4.68
2019-01-02T00:36:51.666Z,4.70
2019-01-02T00:37:51.654Z,4.56
2019-01-02T00:38:51.645Z,4.66
2019-01-02T00:39:51.639Z,4.60
2019-01-02T00:40:51.629Z,4.67
2019-01-02T00:41:51.621Z,4.58
2019-01-02T00:42:51.607Z,4.55
2019-01-02T00:43:51.607Z,4.55
2019-01-02T00:44:51.595Z,4.56
2019-01-02T00:45:51.584Z,4.62
2019-01-02T00:46:51.580Z,4.58
2019-01-02T00:47:51.571Z,4.59
2019-01-02T00:48:51.558Z,4.56
2019-01-02T00:49:51.556Z,4.59
2019-01-02T00:50:51.544Z,4.59
2019-01-02T00:51:51.529Z,4.58
2019-01-02T00:52:51.522Z,4.58
2019-01-02T00:53:51.514Z,4.55
2019-01-02T00:54:51.506Z,4.52
2019-01-02T00:55:51.505Z,4.62
2019-01-02T00:56:51.489Z,4.59
2019-01-02T00:57:51.477Z,4.59
2019-01-02T00:58:51.468Z,4.62
2019-01-02T00:59:51.467Z,4.56
2019-01-02T01:00:51.456Z,4.66
2019-01-02T01:01:51.447Z,4.75
2019-01-02T01:02:51.875Z,4.74
2019-01-02T01:03:51.425Z,4.77
2019-01-02T01:04:51.412Z,4.71
2019-01-02T01:05:51.403Z,4.73
2019-01-02T01:06:51.400Z,4.92
2019-01-02T01:07:51.390Z,4.87
2019-01-02T01:08:51.385Z,4.89
2019-01-02T01:09:51.382Z,4.84
2019-01-02T01:10:51.362Z,4.82
2019-01-02T01:11:51.356Z,4.87
2019-01-02T01:12:51.345Z,4.92
2019-01-02T01:13:51.335Z,4.80
2019-01-02T01:14:51.326Z,4.89
2019-01-02T01:15:51.323Z,4.89
2019-01-02T01:16:51.312Z,4.92
2019-01-02T01:17:51.305Z,4.87
2019-01-02T01:18:51.296Z,4.84
2019-01-02T01:19:51.284Z,4.84
2019-01-02T01:20:51.274Z,4.82
2019-01-02T01:21:51.266Z,4.78
2019-01-02T01:22:51.261Z,4.75
2019-01-02T01:23:51.244Z,4.66
2019-01-02T01:24:51.244Z,4.62
2019-01-02T01:25:51.225Z,4.75
2019-01-02T01:26:51.220Z,4.63
2019-01-02T01:27:51.211Z,4.55
2019-01-02T01:28:51.201Z,4.60
2019-01-02T01:29:51.195Z,4.58
2019-01-02T01:30:51.187Z,4.50
2019-01-02T01:31:51.180Z,4.42
2019-01-02T01:32:51.172Z,4.44
2019-01-02T01:33:51.158Z,4.41
2019-01-02T01:34:51.154Z,4.31
2019-01-02T01:35:51.146Z,4.50
2019-01-02T01:36:51.135Z,4.41
2019-01-02T01:37:51.128Z,4.49
2019-01-02T01:38:51.113Z,4.56
2019-01-02T01:39:51.106Z,4.49
2019-01-02T01:40:51.097Z,4.53
2019-01-02T01:41:51.085Z,4.53
2019-01-02T01:42:51.082Z,4.52
2019-01-02T01:43:51.073Z,4.49
2019-01-02T01:44:51.068Z,4.55
2019-01-02T01:45:51.058Z,4.59
2019-01-02T01:46:51.051Z,4.68
2019-01-02T01:47:51.038Z,4.70
2019-01-02T01:48:51.031Z,4.71
2019-01-02T01:49:51.021Z,4.77
2019-01-02T01:50:51.009Z,4.73
2019-01-02T01:51:51.004Z,4.58
2019-01-02T01:52:50.999Z,4.50
2019-01-02T01:53:50.987Z,4.40
2019-01-02T01:54:50.977Z,4.30
2019-01-02T01:55:50.973Z,4.08
2019-01-02T01:56:50.962Z,4.01
2019-01-02T01:57:50.954Z,4.04
2019-01-02T01:58:50.947Z,4.05
2019-01-02T01:59:50.936Z,3.88
2019-01-02T02:00:50.919Z,3.98
2019-01-02T02:01:50.914Z,3.91
2019-01-02T02:02:50.901Z,3.86
2019-01-02T02:03:50.899Z,3.92
2019-01-02T02:04:50.886Z,3.92
2019-01-02T02:05:50.877Z,3.96
2019-01-02T02:06:50.873Z,3.95
2019-01-02T02:07:50.864Z,3.91
2019-01-02T02:08:50.853Z,3.94
2019-01-02T02:09:50.840Z,3.98
2019-01-02T02:10:50.831Z,3.87
2019-01-02T02:11:50.827Z,3.87
2019-01-02T02:12:50.816Z,3.87
2019-01-02T02:13:50.811Z,3.92
2019-01-02T02:14:50.792Z,3.83
2019-01-02T02:15:50.784Z,3.86
2019-01-02T02:16:50.777Z,3.91
2019-01-02T02:17:50.765Z,3.98
2019-01-02T02:18:50.757Z,3.96
2019-01-02T02:19:50.747Z,3.96
2019-01-02T02:20:50.743Z,3.87
2019-01-02T02:21:50.736Z,4.02
2019-01-02T02:22:50.724Z,4.10
2019-01-02T02:23:50.718Z,4.13
2019-01-02T02:24:50.704Z,4.10
2019-01-02T02:25:50.695Z,4.08
2019-01-02T02:26:50.682Z,4.19
2019-01-02T02:27:50.688Z,4.10
2019-01-02T02:28:50.672Z,4.08
2019-01-02T02:29:50.664Z,4.05
2019-01-02T02:30:50.650Z,4.06
2019-01-02T02:31:50.644Z,4.05
2019-01-02T02:32:50.629Z,4.06
2019-01-02T02:33:50.633Z,4.05
2019-01-02T02:34:50.616Z,4.04
2019-01-02T02:35:50.611Z,4.08
2019-01-02T02:36:50.602Z,4.17
2019-01-02T02:37:50.590Z,4.22
2019-01-02T02:38:50.578Z,4.16
2019-01-02T02:39:50.574Z,4.08
2019-01-02T02:40:50.561Z,4.24
2019-01-02T02:41:50.553Z,4.16
2019-01-02T02:42:50.542Z,4.24
2019-01-02T02:43:50.533Z,4.20
2019-01-02T02:44:50.531Z,4.20
2019-01-02T02:45:50.519Z,4.22
2019-01-02T02:46:50.515Z,4.22
2019-01-02T02:47:50.508Z,4.34
2019-01-02T02:48:50.497Z,4.31
2019-01-02T02:49:50.488Z,4.24
2019-01-02T02:50:50.471Z,4.37
2019-01-02T02:51:50.470Z,4.38
2019-01-02T02:52:50.459Z,4.44
2019-01-02T02:53:50.445Z,4.52
2019-01-02T02:54:50.445Z,4.53
2019-01-02T02:55:50.430Z,4.53
2019-01-02T02:56:50.426Z,4.56
2019-01-02T02:57:50.410Z,4.49
2019-01-02T02:58:50.407Z,4.53
2019-01-02T02:59:50.399Z,4.55
2019-01-02T03:00:50.393Z,4.56
2019-01-02T03:01:50.381Z,4.58
2019-01-02T03:02:50.371Z,4.60
2019-01-02T03:03:50.362Z,4.63
2019-01-02T03:04:50.354Z,4.63
2019-01-02T03:05:50.344Z,4.55
2019-01-02T03:06:52.234Z,4.58
2019-01-02T03:07:50.322Z,4.71
2019-01-02T03:08:50.314Z,4.82
2019-01-02T03:09:50.310Z,4.87
2019-01-02T03:10:50.295Z,4.90
2019-01-02T03:11:50.287Z,4.82
2019-01-02T03:12:50.283Z,4.80
2019-01-02T03:13:50.276Z,4.77
2019-01-02T03:14:50.261Z,4.80
2019-01-02T03:15:50.262Z,4.80
2019-01-02T03:16:50.249Z,4.78
2019-01-02T03:17:50.240Z,4.75
2019-01-02T03:18:50.228Z,4.82
2019-01-02T03:19:50.223Z,4.75
2019-01-02T03:20:50.209Z,4.87
2019-01-02T03:21:50.202Z,4.94
2019-01-02T03:22:50.197Z,4.99
2019-01-02T03:23:50.190Z,4.99
2019-01-02T03:24:50.183Z,5.00
2019-01-02T03:25:50.168Z,4.99
2019-01-02T03:26:50.216Z,5.05
2019-01-02T03:27:50.154Z,5.00
2019-01-02T03:28:50.150Z,5.00
2019-01-02T03:29:50.136Z,5.02
2019-01-02T03:30:50.140Z,5.00
2019-01-02T03:31:50.124Z,5.02
2019-01-02T03:32:50.112Z,4.96
2019-01-02T03:33:50.101Z,4.89
2019-01-02T03:34:50.091Z,5.00
2019-01-02T03:35:50.084Z,4.92
2019-01-02T03:36:50.075Z,4.96
2019-01-02T03:37:50.068Z,4.99
2019-01-02T03:38:50.064Z,4.97
2019-01-02T03:39:50.052Z,4.96
2019-01-02T03:40:50.044Z,4.96
2019-01-02T03:41:50.034Z,5.00
2019-01-02T03:42:50.022Z,5.00
2019-01-02T03:43:50.022Z,5.05
2019-01-02T03:44:50.009Z,5.00
2019-01-02T03:45:49.999Z,5.04
2019-01-02T03:46:49.995Z,4.96
2019-01-02T03:47:49.988Z,4.92
2019-01-02T03:48:49.981Z,4.97
2019-01-02T03:49:49.964Z,4.90
2019-01-02T03:50:49.965Z,4.96
2019-01-02T03:51:49.953Z,5.00
2019-01-02T03:52:49.944Z,5.07
2019-01-02T03:53:49.933Z,5.08
2019-01-02T03:54:49.929Z,5.15
2019-01-02T03:55:49.922Z,5.17
2019-01-02T03:56:49.916Z,5.15
2019-01-02T03:57:49.898Z,5.25
2019-01-02T03:58:49.896Z,5.15
2019-01-02T03:59:49.881Z,5.20
2019-01-02T04:00:49.879Z,5.15
2019-01-02T04:01:49.864Z,5.14
2019-01-02T04:02:49.863Z,5.18
2019-01-02T04:03:49.866Z,5.12
2019-01-02T04:04:49.842Z,5.15
2019-01-02T04:05:49.834Z,5.15
2019-01-02T04:06:49.829Z,5.07
2019-01-02T04:07:49.820Z,5.15
2019-01-02T04:08:49.815Z,5.12
2019-01-02T04:09:49.803Z,5.15
2019-01-02T04:10:49.793Z,5.20
2019-01-02T04:11:49.782Z,5.11
2019-01-02T04:12:49.780Z,5.15
2019-01-02T04:13:49.773Z,5.23
2019-01-02T04:14:49.757Z,5.18
2019-01-02T04:15:49.753Z,5.18
2019-01-02T04:16:49.755Z,5.18
2019-01-02T04:17:49.740Z,5.18
2019-01-02T04:18:49.730Z,5.20
2019-01-02T04:19:49.719Z,5.21
2019-01-02T04:20:49.711Z,5.21
2019-01-02T04:21:49.704Z,5.23
2019-01-02T04:22:49.702Z,5.35
2019-01-02T04:23:49.686Z,5.36
2019-01-02T04:24:49.684Z,5.35
2019-01-02T04:25:49.667Z,5.46
2019-01-02T04:26:49.663Z,5.43
2019-01-02T04:27:49.653Z,5.43
2019-01-02T04:28:49.649Z,5.38
2019-01-02T04:29:49.641Z,5.39
2019-01-02T04:30:49.629Z,5.35
2019-01-02T04:31:49.624Z,5.35
2019-01-02T04:32:49.617Z,5.46
2019-01-02T04:33:49.609Z,5.36
2019-01-02T04:34:49.596Z,5.38
2019-01-02T04:35:49.591Z,5.43
2019-01-02T04:36:49.584Z,5.36
2019-01-02T04:37:49.577Z,5.35
2019-01-02T04:38:49.562Z,5.36
2019-01-02T04:39:49.556Z,5.38
2019-01-02T04:40:49.547Z,5.39
2019-01-02T04:41:49.544Z,5.38
2019-01-02T04:42:49.531Z,5.29
2019-01-02T04:43:49.521Z,5.39
2019-01-02T04:44:49.520Z,5.38
2019-01-02T04:45:49.509Z,5.43
2019-01-02T04:46:49.502Z,5.41
2019-01-02T04:47:49.497Z,5.41
2019-01-02T04:48:49.486Z,5.41
2019-01-02T04:49:49.473Z,5.54
2019-01-02T04:50:49.470Z,5.51
2019-01-02T04:51:49.460Z,5.47
2019-01-02T04:52:49.449Z,5.48
2019-01-02T04:53:49.448Z,5.50
2019-01-02T04:54:49.434Z,5.46
2019-01-02T04:55:49.427Z,5.47
2019-01-02T04:56:49.421Z,5.47
2019-01-02T04:57:49.408Z,5.59
2019-01-02T04:58:49.405Z,5.61
2019-01-02T04:59:49.400Z,5.50
2019-01-02T05:00:49.384Z,5.61
2019-01-02T05:01:49.458Z,5.51
2019-01-02T05:02:49.374Z,5.47
2019-01-02T05:03:49.366Z,5.47
2019-01-02T05:04:49.355Z,5.57
2019-01-02T05:05:49.350Z,5.56
2019-01-02T05:06:49.337Z,5.54
2019-01-02T05:07:49.327Z,5.59
2019-01-02T05:08:49.322Z,5.66
2019-01-02T05:09:49.315Z,5.66
2019-01-02T05:10:49.308Z,5.64
2019-01-02T05:11:49.297Z,5.54
2019-01-02T05:12:49.288Z,5.53
2019-01-02T05:13:49.283Z,5.61
2019-01-02T05:14:49.278Z,5.62
2019-01-02T05:15:49.263Z,5.59
2019-01-02T05:16:49.256Z,5.59
2019-01-02T05:17:49.248Z,5.59
2019-01-02T05:18:49.238Z,5.57
2019-01-02T05:19:49.236Z,5.64
2019-01-02T05:20:49.228Z,5.57
2019-01-02T05:21:49.213Z,5.61
2019-01-02T05:22:49.205Z,5.48
2019-01-02T05:23:49.199Z,5.51
2019-01-02T05:24:49.190Z,5.56
2019-01-02T05:25:49.189Z,5.54
2019-01-02T05:26:49.176Z,5.65
2019-01-02T05:27:49.164Z,5.59
2019-01-02T05:28:49.164Z,5.61
2019-01-02T05:29:49.150Z,5.53
2019-01-02T05:30:49.142Z,5.53
2019-01-02T05:31:49.134Z,5.53
2019-01-02T05:32:49.125Z,5.51
2019-01-02T05:33:49.121Z,5.39
2019-01-02T05:34:49.112Z,5.50
2019-01-02T05:35:49.105Z,5.39
2019-01-02T05:36:49.098Z,5.39
2019-01-02T05:37:49.082Z,5.48
2019-01-02T05:38:49.082Z,5.43
2019-01-02T05:39:49.067Z,5.44
2019-01-02T05:40:49.064Z,5.38
2019-01-02T05:41:49.051Z,5.38
2019-01-02T05:42:49.043Z,5.29
2019-01-02T05:43:49.036Z,5.25
2019-01-02T05:44:49.025Z,5.32
2019-01-02T05:45:49.021Z,5.26
2019-01-02T05:46:49.014Z,5.26
2019-01-02T05:47:49.007Z,5.23
2019-01-02T05:48:48.994Z,5.18
2019-01-02T05:49:48.986Z,5.21
2019-01-02T05:50:48.981Z,5.14
2019-01-02T05:51:48.968Z,5.17
2019-01-02T05:52:48.963Z,5.04
2019-01-02T05:53:48.956Z,5.05
2019-01-02T05:54:48.949Z,5.04
2019-01-02T05:55:48.940Z,5.00
2019-01-02T05:56:48.925Z,4.99
2019-01-02T05:57:48.916Z,5.02
2019-01-02T05:58:48.912Z,5.07
2019-01-02T05:59:48.905Z,5.02
2019-01-02T06:00:48.899Z,4.89
2019-01-02T06:01:48.884Z,4.92
2019-01-02T06:02:48.881Z,4.86
2019-01-02T06:03:48.868Z,4.86
2019-01-02T06:04:48.862Z,4.87
2019-01-02T06:05:48.853Z,4.74
2019-01-02T06:06:48.847Z,4.74
2019-01-02T06:07:48.832Z,4.82
2019-01-02T06:08:48.826Z,4.75
2019-01-02T06:09:48.816Z,4.73
2019-01-02T06:10:48.812Z,4.73
2019-01-02T06:11:48.797Z,4.74
2019-01-02T06:12:48.795Z,4.62
2019-01-02T06:13:48.783Z,4.52
2019-01-02T06:14:48.779Z,4.53
2019-01-02T06:15:48.766Z,4.58
2019-01-02T06:16:48.755Z,4.53
2019-01-02T06:17:48.755Z,4.50
2019-01-02T06:18:48.739Z,4.53
2019-01-02T06:19:48.727Z,4.52
2019-01-02T06:20:48.721Z,4.59
2019-01-02T06:21:48.716Z,4.55
2019-01-02T06:22:48.707Z,4.52
2019-01-02T06:23:48.699Z,4.67
2019-01-02T06:24:48.689Z,4.67
2019-01-02T06:25:48.683Z,4.66
2019-01-02T06:26:48.673Z,4.67
2019-01-02T06:27:48.667Z,4.67
2019-01-02T06:28:48.656Z,4.60
2019-01-02T06:29:48.642Z,4.56
2019-01-02T06:30:48.636Z,4.66
2019-01-02T06:31:48.634Z,4.67
2019-01-02T06:32:48.620Z,4.56
2019-01-02T06:33:48.607Z,4.67
2019-01-02T06:34:48.606Z,4.59
2019-01-02T06:35:48.598Z,4.66
2019-01-02T06:36:48.587Z,4.62
2019-01-02T06:37:48.581Z,4.78
2019-01-02T06:38:48.565Z,4.71
2019-01-02T06:39:48.557Z,4.66
2019-01-02T06:40:48.549Z,4.73
2019-01-02T06:41:48.546Z,4.74
2019-01-02T06:42:48.531Z,4.78
2019-01-02T06:43:48.523Z,4.87
2019-01-02T06:44:48.514Z,4.77
2019-01-02T06:45:48.505Z,4.77
2019-01-02T06:46:48.499Z,4.78
2019-01-02T06:47:48.491Z,4.78
2019-01-02T06:48:48.490Z,4.68
2019-01-02T06:49:48.479Z,4.80
2019-01-02T06:50:48.468Z,4.71
2019-01-02T06:51:48.461Z,4.74
2019-01-02T06:52:48.449Z,4.66
2019-01-02T06:53:49.461Z,4.66
2019-01-02T06:54:48.431Z,4.60
2019-01-02T06:55:48.423Z,4.55
2019-01-02T06:56:48.420Z,4.48
2019-01-02T06:57:48.404Z,4.48
2019-01-02T06:58:48.398Z,4.35
2019-01-02T06:59:48.395Z,4.30
2019-01-02T07:00:48.381Z,4.26
2019-01-02T07:01:48.372Z,4.31
2019-01-02T07:02:48.366Z,4.24
2019-01-02T07:03:48.359Z,4.22
2019-01-02T07:04:48.350Z,4.19
2019-01-02T07:05:48.341Z,4.23
2019-01-02T07:06:48.329Z,4.20
2019-01-02T07:07:48.321Z,4.10
2019-01-02T07:08:48.313Z,4.08
2019-01-02T07:09:48.309Z,4.05
2019-01-02T07:10:48.293Z,4.17
2019-01-02T07:11:49.495Z,4.05
2019-01-02T07:12:48.281Z,4.05
2019-01-02T07:13:48.274Z,4.02
2019-01-02T07:14:48.262Z,3.86
2019-01-02T07:15:48.254Z,3.87
2019-01-02T07:16:48.246Z,3.92
2019-01-02T07:17:48.232Z,3.84
2019-01-02T07:18:48.230Z,3.88
2019-01-02T07:19:48.215Z,3.84
2019-01-02T07:20:48.214Z,3.81
2019-01-02T07:21:48.198Z,3.86
2019-01-02T07:22:48.192Z,3.91
2019-01-02T07:23:48.184Z,3.83
2019-01-02T07:24:48.176Z,3.77
2019-01-02T07:25:48.166Z,3.96
2019-01-02T07:26:48.328Z,3.87
2019-01-02T07:27:48.152Z,3.84
2019-01-02T07:28:48.143Z,4.05
2019-01-02T07:29:48.126Z,4.06
2019-01-02T07:30:48.121Z,4.05
2019-01-02T07:31:48.117Z,4.04
2019-01-02T07:32:48.114Z,4.04
2019-01-02T07:33:48.099Z,4.05
2019-01-02T07:34:48.088Z,4.01
2019-01-02T07:35:48.079Z,4.01
2019-01-02T07:36:48.071Z,4.10
2019-01-02T07:37:48.056Z,4.14
2019-01-02T07:38:48.055Z,4.14
2019-01-02T07:39:48.041Z,4.17
2019-01-02T07:40:48.032Z,4.12
2019-01-02T07:41:48.029Z,4.12
2019-01-02T07:42:48.019Z,4.12
2019-01-02T07:43:48.007Z,4.23
2019-01-02T07:44:47.999Z,4.23
2019-01-02T07:45:47.991Z,4.12
2019-01-02T07:46:47.978Z,4.24
2019-01-02T07:47:47.977Z,4.17
2019-01-02T07:48:47.963Z,4.13
2019-01-02T07:49:47.953Z,4.05
2019-01-02T07:50:47.951Z,4.10
2019-01-02T07:51:47.939Z,4.06
2019-01-02T07:52:47.926Z,4.10
2019-01-02T07:53:47.919Z,4.19
2019-01-02T07:54:47.913Z,4.14
2019-01-02T07:55:47.902Z,4.08
2019-01-02T07:56:47.895Z,4.12
2019-01-02T07:57:47.882Z,4.12
2019-01-02T07:58:47.879Z,4.26
2019-01-02T07:59:47.869Z,4.22
2019-01-02T08:00:47.857Z,4.30
2019-01-02T08:01:47.851Z,4.31
2019-01-02T08:02:47.841Z,4.26
2019-01-02T08:03:47.831Z,4.31
2019-01-02T08:04:47.823Z,4.45
2019-01-02T08:05:47.814Z,4.40
2019-01-02T08:06:47.810Z,4.37
2019-01-02T08:07:47.799Z,4.40
2019-01-02T08:08:47.793Z,4.44
2019-01-02T08:09:47.784Z,4.48
2019-01-02T08:10:47.777Z,4.58
2019-01-02T08:11:47.767Z,4.59
2019-01-02T08:12:47.756Z,4.63
2019-01-02T08:13:47.747Z,4.67
2019-01-02T08:14:47.740Z,4.62
2019-01-02T08:15:47.735Z,4.59
2019-01-02T08:16:47.722Z,4.60
2019-01-02T08:17:47.712Z,4.59
2019-01-02T08:18:47.707Z,4.56
2019-01-02T08:19:47.697Z,4.63
2019-01-02T08:20:47.685Z,4.66
2019-01-02T08:21:47.675Z,4.74
2019-01-02T08:22:47.674Z,4.74
2019-01-02T08:23:47.667Z,4.70
2019-01-02T08:24:47.659Z,4.68
2019-01-02T08:25:47.690Z,4.73
2019-01-02T08:26:47.638Z,4.70
2019-01-02T08:27:47.628Z,4.70
2019-01-02T08:28:47.617Z,4.74
2019-01-02T08:29:47.608Z,4.68
2019-01-02T08:30:47.609Z,4.71
2019-01-02T08:31:47.597Z,4.67
2019-01-02T08:32:47.584Z,4.68
2019-01-02T08:33:47.580Z,4.82
2019-01-02T08:34:47.574Z,4.84
2019-01-02T08:35:47.565Z,4.87
2019-01-02T08:36:47.556Z,4.78
2019-01-02T08:37:47.549Z,4.78
2019-01-02T08:38:47.534Z,4.78
2019-01-02T08:39:47.528Z,4.87
2019-01-02T08:40:47.526Z,4.82
2019-01-02T08:41:47.516Z,4.92
2019-01-02T08:42:47.503Z,4.93
2019-01-02T08:43:47.498Z,4.99
2019-01-02T08:44:47.488Z,4.96
2019-01-02T08:45:47.477Z,4.94
2019-01-02T08:46:47.469Z,4.94
2019-01-02T08:47:47.465Z,4.92
2019-01-02T08:48:47.453Z,5.02
2019-01-02T08:49:47.444Z,4.84
2019-01-02T08:50:47.442Z,4.84
2019-01-02T08:51:47.440Z,4.80
2019-01-02T08:52:47.427Z,4.87
2019-01-02T08:53:47.420Z,4.78
2019-01-02T08:54:47.408Z,4.71
2019-01-02T08:55:47.401Z,4.71
2019-01-02T08:56:47.397Z,4.74
2019-01-02T08:57:47.380Z,4.74
2019-01-02T08:58:47.372Z,4.66
2019-01-02T08:59:47.368Z,4.71
2019-01-02T09:00:47.361Z,4.59
2019-01-02T09:01:47.355Z,4.67
2019-01-02T09:02:47.341Z,4.59
2019-01-02T09:03:47.330Z,4.67
2019-01-02T09:04:47.331Z,4.66
2019-01-02T09:05:47.322Z,4.55
2019-01-02T09:06:47.314Z,4.66
2019-01-02T09:07:47.300Z,4.63
2019-01-02T09:08:47.299Z,4.63
2019-01-02T09:09:47.283Z,4.55
2019-01-02T09:10:47.275Z,4.62
2019-01-02T09:11:47.270Z,4.63
2019-01-02T09:12:47.264Z,4.59
2019-01-02T09:13:47.254Z,4.59
2019-01-02T09:14:47.246Z,4.58
2019-01-02T09:15:47.235Z,4.60
2019-01-02T09:16:47.231Z,4.67
2019-01-02T09:17:47.226Z,4.74
2019-01-02T09:18:47.210Z,4.68
2019-01-02T09:19:47.210Z,4.73
2019-01-02T09:20:47.203Z,4.86
2019-01-02T09:21:47.193Z,4.87
2019-01-02T09:22:47.185Z,4.87
2019-01-02T09:23:47.177Z,4.78
2019-01-02T09:24:47.167Z,4.87
2019-01-02T09:25:47.155Z,4.87
2019-01-02T09:26:47.153Z,4.90
2019-01-02T09:27:47.138Z,4.99
2019-01-02T09:28:47.135Z,4.99
2019-01-02T09:29:47.127Z,4.94
2019-01-02T09:30:47.114Z,4.96
2019-01-02T09:31:47.113Z,4.99
2019-01-02T09:32:47.099Z,4.96
2019-01-02T09:33:52.222Z,4.94
2019-01-02T09:34:47.085Z,4.92
2019-01-02T09:35:47.102Z,5.02
2019-01-02T09:36:47.069Z,5.02
2019-01-02T09:37:47.064Z,4.94
2019-01-02T09:38:47.062Z,5.08
2019-01-02T09:39:47.047Z,5.08
2019-01-02T09:40:47.118Z,5.12
2019-01-02T09:41:47.026Z,5.17
2019-01-02T09:42:47.018Z,5.18
2019-01-02T09:43:47.018Z,5.15
2019-01-02T09:44:47.007Z,5.12
2019-01-02T09:45:46.994Z,5.21
2019-01-02T09:46:46.991Z,5.15
2019-01-02T09:47:46.984Z,5.18
2019-01-02T09:48:46.979Z,5.21
2019-01-02T09:49:46.965Z,5.18
2019-01-02T09:50:46.963Z,5.29
2019-01-02T09:51:46.950Z,5.32
2019-01-02T09:52:46.941Z,5.28
2019-01-02T09:53:46.935Z,5.38
2019-01-02T09:54:46.927Z,5.43
2019-01-02T09:55:46.926Z,5.51
2019-01-02T09:56:46.911Z,5.47
2019-01-02T09:57:46.906Z,5.57
2019-01-02T09:58:46.899Z,5.68
2019-01-02T09:59:46.888Z,5.66
2019-01-02T10:00:46.889Z,5.66
2019-01-02T10:01:46.875Z,5.65
2019-01-02T10:02:46.874Z,5.71
2019-01-02T10:03:46.861Z,5.69
2019-01-02T10:04:46.851Z,5.71
2019-01-02T10:05:46.886Z,5.75
2019-01-02T10:06:46.842Z,5.68
2019-01-02T10:07:46.834Z,5.73
2019-01-02T10:08:46.826Z,5.72
2019-01-02T10:09:46.816Z,5.73
2019-01-02T10:10:46.807Z,5.73
2019-01-02T10:11:46.805Z,5.75
2019-01-02T10:12:46.800Z,5.73
2019-01-02T10:13:46.787Z,5.73
2019-01-02T10:14:46.780Z,5.73
2019-01-02T10:15:46.781Z,5.80
2019-01-02T10:16:46.768Z,5.79
2019-01-02T10:17:46.758Z,5.83
2019-01-02T10:18:46.757Z,5.89
2019-01-02T10:19:46.742Z,5.83
2019-01-02T10:20:46.744Z,5.89
2019-01-02T10:21:46.730Z,5.82
2019-01-02T10:22:46.729Z,5.86
2019-01-02T10:23:46.717Z,5.91
2019-01-02T10:24:46.714Z,5.97
2019-01-02T10:25:46.705Z,5.90
2019-01-02T10:26:46.701Z,5.98
2019-01-02T10:27:46.692Z,5.99
2019-01-02T10:28:46.683Z,5.97
2019-01-02T10:29:46.672Z,6.04
2019-01-02T10:30:46.663Z,6.02
2019-01-02T10:31:46.662Z,6.01
2019-01-02T10:32:46.658Z,6.20
2019-01-02T10:33:46.646Z,6.19
2019-01-02T10:34:46.638Z,6.36
2019-01-02T10:35:46.632Z,6.46
2019-01-02T10:36:46.623Z,6.41
2019-01-02T10:37:46.621Z,6.42
2019-01-02T10:38:46.614Z,6.41
2019-01-02T10:39:46.608Z,6.54
2019-01-02T10:40:46.607Z,6.54
2019-01-02T10:41:46.594Z,6.63
2019-01-02T10:42:46.584Z,6.72
2019-01-02T10:43:46.577Z,6.67
2019-01-02T10:44:46.579Z,6.74
2019-01-02T10:45:46.568Z,6.82
2019-01-02T10:46:46.564Z,6.97
2019-01-02T10:47:46.561Z,6.96
2019-01-02T10:48:46.550Z,6.97
2019-01-02T10:49:46.548Z,7.18
2019-01-02T10:50:46.539Z,7.18
2019-01-02T10:51:46.534Z,7.21
2019-01-02T10:52:46.895Z,7.18
2019-01-02T10:53:46.517Z,7.17
2019-01-02T10:54:46.514Z,7.40
2019-01-02T10:55:46.510Z,7.50
2019-01-02T10:56:46.507Z,7.54
2019-01-02T10:57:46.500Z,7.36
2019-01-02T10:58:46.497Z,7.53
2019-01-02T10:59:46.488Z,7.73
2019-01-02T11:00:46.489Z,7.50
2019-01-02T11:01:46.481Z,7.57
2019-01-02T11:02:46.469Z,7.60
2019-01-02T11:03:46.465Z,7.76
2019-01-02T11:04:46.464Z,8.01
2019-01-02T11:05:46.460Z,7.79
2019-01-02T11:06:46.455Z,7.90
2019-01-02T11:07:46.452Z,7.95
2019-01-02T11:08:46.442Z,7.98
2019-01-02T11:09:46.440Z,7.95
2019-01-02T11:10:46.430Z,7.93
2019-01-02T11:11:46.428Z,7.54
2019-01-02T11:12:46.424Z,7.42
2019-01-02T11:13:46.421Z,7.36
2019-01-02T11:14:46.413Z,7.38
2019-01-02T11:15:46.405Z,7.63
2019-01-02T11:16:46.403Z,7.87
2019-01-02T11:17:46.397Z,7.90
2019-01-02T11:18:46.394Z,8.01
2019-01-02T11:19:46.389Z,8.09
2019-01-02T11:20:46.383Z,8.34
2019-01-02T11:21:46.378Z,8.33
2019-01-02T11:22:46.374Z,8.16
2019-01-02T11:23:46.365Z,8.08
2019-01-02T11:24:46.366Z,8.34
2019-01-02T11:25:46.356Z,8.18
2019-01-02T11:26:46.359Z,8.26
2019-01-02T11:27:46.351Z,8.37
2019-01-02T11:28:46.347Z,8.69
2019-01-02T11:29:46.345Z,8.67
2019-01-02T11:30:46.340Z,8.78
2019-01-02T11:31:46.343Z,8.91
2019-01-02T11:32:46.333Z,8.70
2019-01-02T11:33:46.333Z,8.58
2019-01-02T11:34:46.323Z,8.15
2019-01-02T11:35:46.320Z,8.00
2019-01-02T11:36:46.313Z,8.08
2019-01-02T11:37:46.310Z,8.26
2019-01-02T11:38:46.312Z,8.37
2019-01-02T11:39:46.304Z,8.61
2019-01-02T11:40:46.304Z,8.89
2019-01-02T11:41:46.319Z,9.11
2019-01-02T11:42:46.297Z,9.51
2019-01-02T11:43:46.289Z,9.72
2019-01-02T11:44:46.287Z,9.89
2019-01-02T11:45:46.285Z,9.80
2019-01-02T11:46:46.284Z,9.77
2019-01-02T11:47:46.276Z,9.66
2019-01-02T11:48:46.274Z,9.51
2019-01-02T11:49:46.274Z,9.41
2019-01-02T11:50:46.270Z,9.43
2019-01-02T11:51:46.271Z,9.55
2019-01-02T11:52:46.264Z,9.65
2019-01-02T11:53:46.264Z,9.62
2019-01-02T11:54:46.259Z,9.50
2019-01-02T11:55:46.255Z,9.66
2019-01-02T11:56:46.251Z,9.69
2019-01-02T11:57:46.248Z,9.83
2019-01-02T11:58:49.959Z,9.95
2019-01-02T11:59:46.246Z,10.10
2019-01-02T12:00:46.239Z,10.35
2019-01-02T12:01:46.237Z,10.46
2019-01-02T12:02:46.236Z,10.86
2019-01-02T12:03:46.238Z,10.86
2019-01-02T12:04:46.235Z,10.92
2019-01-02T12:05:46.233Z,11.18
2019-01-02T12:06:46.234Z,11.43
2019-01-02T12:07:46.231Z,11.51
2019-01-02T12:08:46.230Z,11.75
2019-01-02T12:09:46.234Z,11.68
2019-01-02T12:10:46.231Z,11.05
2019-01-02T12:11:46.227Z,11.26
2019-01-02T12:12:46.222Z,11.11
2019-01-02T12:13:46.222Z,10.94
2019-01-02T12:14:46.226Z,11.23
2019-01-02T12:15:46.230Z,11.43
2019-01-02T12:16:46.226Z,11.54
2019-01-02T12:17:46.222Z,11.57
2019-01-02T12:18:46.241Z,10.69
2019-01-02T12:19:46.226Z,10.54
2019-01-02T12:20:46.221Z,10.60
2019-01-02T12:21:46.222Z,10.40
2019-01-02T12:22:46.227Z,9.95
2019-01-02T12:23:46.221Z,9.83
2019-01-02T12:24:46.226Z,10.54
2019-01-02T12:25:46.223Z,11.30
2019-01-02T12:26:46.221Z,10.79
2019-01-02T12:27:46.224Z,11.32
2019-01-02T12:28:46.221Z,11.72
2019-01-02T12:29:46.218Z,12.24
2019-01-02T12:30:46.230Z,12.42
2019-01-02T12:31:46.226Z,12.17
2019-01-02T12:32:46.225Z,12.24
2019-01-02T12:33:46.229Z,12.83
2019-01-02T12:34:46.233Z,12.97
2019-01-02T12:35:46.228Z,12.91
2019-01-02T12:36:46.231Z,13.53
2019-01-02T12:37:46.235Z,13.97
2019-01-02T12:38:46.240Z,13.62
2019-01-02T12:39:46.247Z,13.13
2019-01-02T12:40:46.249Z,13.18
2019-01-02T12:41:46.249Z,13.46
2019-01-02T12:42:46.254Z,13.37
2019-01-02T12:43:46.250Z,13.04
2019-01-02T12:44:46.254Z,13.39
2019-01-02T12:45:46.264Z,14.05
2019-01-02T12:46:46.260Z,14.25
2019-01-02T12:47:46.274Z,13.27
2019-01-02T12:48:46.270Z,13.57
2019-01-02T12:49:46.279Z,13.49
2019-01-02T12:50:46.281Z,13.30
2019-01-02T12:51:46.287Z,12.73
2019-01-02T12:52:46.287Z,13.09
2019-01-02T12:53:46.287Z,13.25
2019-01-02T12:54:46.300Z,13.53
2019-01-02T12:55:46.297Z,13.28
2019-01-02T12:56:46.301Z,12.76
2019-01-02T12:57:46.310Z,12.93
2019-01-02T12:58:46.314Z,13.12
2019-01-02T12:59:46.316Z,12.97
2019-01-02T13:00:46.320Z,13.59
2019-01-02T13:01:46.329Z,13.86
2019-01-02T13:02:46.334Z,13.57
2019-01-02T13:03:46.332Z,13.22
2019-01-02T13:04:46.344Z,13.30
2019-01-02T13:05:46.347Z,13.35
2019-01-02T13:06:46.355Z,13.56
2019-01-02T13:07:46.355Z,13.92
2019-01-02T13:08:46.362Z,14.51
2019-01-02T13:09:46.359Z,14.96
2019-01-02T13:10:46.369Z,15.21
2019-01-02T13:11:46.371Z,15.49
2019-01-02T13:12:46.374Z,15.73
2019-01-02T13:13:46.386Z,14.48
2019-01-02T13:14:46.390Z,14.29
2019-01-02T13:15:46.388Z,14.22